Time;durP1;ratioP1;P1;durP2;ratioP2;P2;SDS_P1;SDS_P2;PMS_P1;PMS_P2;Temp;Humidity;BMP_temperature;BMP_pressure;BME280_temperature;BME280_humidity;BME280_pressure;Samples;Min_cycle;Max_cycle;Signal;HPM_P1;HPM_P2
2023/01/19 00:01:19;;;;;;;22.48;3.97;;;;;;;13.15;100.00;99742.31;5053241;28;20387;-70
2023/01/19 00:03:45;;;;;;;24.60;4.80;;;;;;;13.42;100.00;99785.94;5053149;28;20104;-69
2023/01/19 00:06:11;;;;;;;21.65;4.15;;;;;;;13.52;100.00;99811.97;5050754;28;20463;-70
2023/01/19 00:08:36;;;;;;;20.10;5.43;;;;;;;13.50;100.00;99800.72;5052888;28;20486;-68
2023/01/19 00:11:02;;;;;;;26.80;5.43;;;;;;;13.38;100.00;99778.09;5053272;28;20429;-67
2023/01/19 00:13:27;;;;;;;15.25;3.72;;;;;;;13.50;100.00;99800.72;5046707;28;20056;-68
2023/01/19 00:15:53;;;;;;;18.75;5.28;;;;;;;13.52;100.00;99822.34;5033404;28;20039;-69
2023/01/19 00:18:18;;;;;;;14.00;3.80;;;;;;;13.54;100.00;99799.91;5033553;28;20467;-70
2023/01/19 00:20:45;;;;;;;23.13;5.00;;;;;;;13.10;100.00;99731.84;5032749;28;20068;-69
2023/01/19 00:23:12;;;;;;;14.05;4.50;;;;;;;13.40;100.00;99782.44;5032833;28;20021;-71
2023/01/19 00:25:42;;;;;;;16.45;4.15;;;;;;;13.31;100.00;99786.59;5033242;28;20090;-69
2023/01/19 00:28:11;;;;;;;19.65;3.72;;;;;;;13.45;100.00;99803.25;5033383;28;20028;-69
2023/01/19 00:30:38;;;;;;;15.77;4.57;;;;;;;12.87;100.00;99708.22;5032791;28;20033;-69
2023/01/19 00:33:04;;;;;;;18.90;4.05;;;;;;;13.59;100.00;99808.63;5032839;28;20041;-69
2023/01/19 00:35:30;;;;;;;13.40;3.30;;;;;;;13.64;100.00;99832.91;5032174;28;20519;-69
2023/01/19 00:37:56;;;;;;;19.98;4.10;;;;;;;13.62;100.00;99834.63;5018309;28;20026;-67
2023/01/19 00:40:22;;;;;;;14.52;3.78;;;;;;;13.35;100.00;99814.31;5012687;28;20483;-67
2023/01/19 00:42:47;;;;;;;23.17;3.50;;;;;;;13.31;100.00;99820.28;5014483;28;20057;-69
2023/01/19 00:45:15;;;;;;;24.88;4.63;;;;;;;13.39;100.00;99840.31;5012588;28;20099;-68
2023/01/19 00:47:41;;;;;;;15.52;3.67;;;;;;;13.35;100.00;99842.84;5012192;28;20028;-70
2023/01/19 00:50:10;;;;;;;17.55;5.00;;;;;;;13.33;100.00;99837.59;5027731;28;20017;-71
2023/01/19 00:52:36;;;;;;;19.40;5.10;;;;;;;13.21;100.00;99814.09;5012229;28;20029;-67
2023/01/19 00:55:02;;;;;;;12.82;4.03;;;;;;;13.35;100.00;99853.19;5043006;28;20513;-67
2023/01/19 00:57:28;;;;;;;24.38;5.30;;;;;;;13.30;100.00;99850.53;5012212;28;20100;-67
2023/01/19 00:59:53;;;;;;;18.88;4.22;;;;;;;13.33;100.00;99858.34;5012183;28;20079;-68
2023/01/19 01:02:19;;;;;;;21.52;5.30;;;;;;;13.31;100.00;99843.63;5012460;28;20030;-69
2023/01/19 01:04:44;;;;;;;25.35;5.05;;;;;;;13.29;100.00;99872.09;5011966;28;20037;-72
2023/01/19 01:07:10;;;;;;;13.50;3.35;;;;;;;13.20;100.00;99857.28;5012256;28;20545;-67
2023/01/19 01:09:35;;;;;;;29.08;5.45;;;;;;;13.31;100.00;99869.53;5012102;28;20537;-67
2023/01/19 01:12:01;;;;;;;20.10;5.07;;;;;;;13.37;100.00;99870.56;5012128;28;20042;-66
2023/01/19 01:14:27;;;;;;;17.30;4.35;;;;;;;13.39;100.00;99870.56;5011588;28;20026;-69
2023/01/19 01:16:53;;;;;;;23.45;6.15;;;;;;;13.39;100.00;99850.69;5012377;28;20076;-72
2023/01/19 01:19:19;;;;;;;29.63;5.13;;;;;;;12.95;100.00;99783.47;5031623;28;20399;-71
2023/01/19 01:21:45;;;;;;;27.55;6.07;;;;;;;13.50;100.00;99865.56;5032145;28;20055;-68
2023/01/19 01:24:11;;;;;;;36.03;6.18;;;;;;;13.52;100.00;99862.16;5031523;28;20040;-68
2023/01/19 01:26:36;;;;;;;26.35;5.93;;;;;;;13.53;100.00;99866.50;5031528;28;20033;-68
2023/01/19 01:29:03;;;;;;;26.15;5.22;;;;;;;13.59;100.00;99870.88;5031780;28;20018;-66
2023/01/19 01:31:29;;;;;;;26.77;5.55;;;;;;;13.63;100.00;99862.28;5031936;28;20033;-68
2023/01/19 01:33:55;;;;;;;21.73;5.30;;;;;;;13.25;100.00;99796.00;5031342;28;20503;-68
2023/01/19 01:36:20;;;;;;;27.90;5.22;;;;;;;13.58;100.00;99841.50;5031766;28;20112;-69
2023/01/19 01:38:46;;;;;;;26.75;5.68;;;;;;;13.12;100.00;99765.56;5031865;28;20075;-68
2023/01/19 01:41:12;;;;;;;26.67;5.22;;;;;;;13.71;100.00;99865.88;5029582;28;20106;-68
2023/01/19 01:43:58;;;;;;;28.02;6.03;;;;;;;13.73;100.00;99852.91;5031412;28;20028;-68
2023/01/19 01:46:28;;;;;;;26.88;7.53;;;;;;;12.88;100.00;99715.13;5031484;28;20774;-67
2023/01/19 01:49:04;;;;;;;26.30;5.22;;;;;;;13.79;100.00;99860.78;5031177;28;20022;-68
2023/01/19 01:51:36;;;;;;;25.42;5.47;;;;;;;13.85;100.00;99863.47;5031063;28;20033;-69
2023/01/19 01:54:25;;;;;;;24.23;5.93;;;;;;;13.42;100.00;99778.16;5030345;28;20541;-68
2023/01/19 01:56:54;;;;;;;18.50;4.60;;;;;;;13.91;100.00;99870.47;5025809;28;20117;-69
2023/01/19 01:59:26;;;;;;;29.05;6.47;;;;;;;13.84;100.00;99853.06;5031543;28;20033;-68
2023/01/19 02:04:49;;;;;;;23.45;5.07;;;;;;;13.84;100.00;99869.50;5031571;28;20477;-69
2023/01/19 02:15:35;;;;;;;22.75;5.47;;;;;;;13.77;100.00;99878.06;5031172;28;20036;-69
2023/01/19 02:18:00;;;;;;;23.48;4.85;;;;;;;13.65;100.00;99863.19;5031629;28;20399;-69
2023/01/19 02:20:29;;;;;;;20.77;4.38;;;;;;;13.66;100.00;99877.91;5031446;28;20026;-69
2023/01/19 02:23:00;;;;;;;25.48;5.60;;;;;;;13.64;100.00;99884.78;5031485;28;20068;-69
2023/01/19 02:25:25;;;;;;;26.70;5.03;;;;;;;13.62;100.00;99881.31;5031425;28;20068;-69
2023/01/19 02:27:51;;;;;;;19.20;3.78;;;;;;;13.61;100.00;99876.97;5030965;28;20076;-68
2023/01/19 02:30:17;;;;;;;19.40;3.70;;;;;;;13.55;100.00;99884.66;5031298;28;20033;-68
2023/01/19 02:32:43;;;;;;;24.75;5.25;;;;;;;13.60;100.00;99885.59;5031294;28;20025;-69
2023/01/19 02:35:10;;;;;;;30.20;6.80;;;;;;;13.24;100.00;99827.97;5030950;28;20029;-68
2023/01/19 02:37:39;;;;;;;23.92;4.47;;;;;;;13.55;100.00;99884.66;5030935;28;20033;-68
2023/01/19 02:40:09;;;;;;;20.30;4.33;;;;;;;13.54;100.00;99888.09;5031099;28;20076;-69
2023/01/19 02:42:59;;;;;;;28.27;4.88;;;;;;;13.53;100.00;99886.34;5030356;28;20025;-68
2023/01/19 02:45:25;;;;;;;28.63;5.15;;;;;;;13.57;100.00;99898.50;5030943;28;20036;-68
2023/01/19 02:47:51;;;;;;;20.20;4.32;;;;;;;13.52;100.00;99893.25;5030848;28;20396;-69
2023/01/19 02:50:37;;;;;;;21.95;4.90;;;;;;;13.49;100.00;99892.34;5030686;28;20037;-68
2023/01/19 02:53:15;;;;;;;27.65;4.88;;;;;;;13.43;100.00;99898.28;5030652;28;20032;-67
2023/01/19 02:55:45;;;;;;;26.90;4.88;;;;;;;13.41;100.00;99898.28;5030770;28;20072;-68
2023/01/19 02:58:36;;;;;;;27.73;5.38;;;;;;;13.35;100.00;99898.13;5030749;28;20026;-68
2023/01/19 03:01:27;;;;;;;32.80;5.15;;;;;;;13.33;100.00;99898.97;5030121;28;20052;-68
2023/01/19 03:03:57;;;;;;;23.60;5.00;;;;;;;13.35;100.00;99895.53;5030921;28;20033;-69
2023/01/19 03:06:34;;;;;;;26.00;5.63;;;;;;;13.37;100.00;99911.13;5030909;28;20078;-69
2023/01/19 03:09:13;;;;;;;23.88;4.63;;;;;;;13.32;100.00;99902.41;5030463;28;20029;-69
2023/01/19 03:11:45;;;;;;;27.73;5.30;;;;;;;13.15;100.00;99878.81;5030214;28;20049;-68
2023/01/19 03:14:17;;;;;;;24.13;5.72;;;;;;;13.22;100.00;99891.88;5030680;28;20033;-69
2023/01/19 03:16:53;;;;;;;27.20;5.18;;;;;;;13.39;100.00;99907.72;5030459;28;20458;-68
2023/01/19 03:19:39;;;;;;;30.38;6.65;;;;;;;13.41;100.00;99908.63;5030624;28;20193;-68
2023/01/19 03:22:09;;;;;;;32.85;6.72;;;;;;;13.43;100.00;99916.44;5030189;28;20041;-68
2023/01/19 03:24:42;;;;;;;24.20;5.78;;;;;;;13.35;100.00;99913.69;5029346;28;20487;-69
2023/01/19 03:27:23;;;;;;;27.08;5.68;;;;;;;13.33;100.00;99912.78;5029732;28;20078;-68
2023/01/19 03:29:53;;;;;;;32.17;6.43;;;;;;;13.28;100.00;99901.47;5030286;28;20411;-69
2023/01/19 03:32:24;;;;;;;29.33;6.40;;;;;;;13.29;100.00;99910.13;5030432;28;20045;-69
2023/01/19 03:34:51;;;;;;;31.90;6.75;;;;;;;13.33;100.00;99915.38;5030397;28;20152;-69
2023/01/19 03:37:19;;;;;;;35.85;7.38;;;;;;;13.37;100.00;99912.03;5030249;28;20029;-68
2023/01/19 03:39:44;;;;;;;33.13;6.78;;;;;;;13.28;100.00;99909.25;5030041;28;20025;-69
2023/01/19 03:42:13;;;;;;;29.50;5.70;;;;;;;13.24;100.00;99915.22;5030598;28;20037;-69
2023/01/19 03:44:42;;;;;;;32.38;5.45;;;;;;;13.22;100.00;99910.03;5030383;28;20029;-68
2023/01/19 03:47:10;;;;;;;36.83;6.53;;;;;;;13.25;100.00;99909.22;5030080;28;20030;-69
2023/01/19 03:49:37;;;;;;;33.63;6.38;;;;;;;13.24;100.00;99902.28;5030177;28;20503;-69
2023/01/19 03:52:04;;;;;;;34.63;6.28;;;;;;;13.20;100.00;99900.50;5030210;28;20025;-69
2023/01/19 03:54:30;;;;;;;33.10;6.38;;;;;;;13.19;100.00;99896.16;5030259;28;20036;-69
2023/01/19 03:56:55;;;;;;;25.02;5.63;;;;;;;13.11;100.00;99907.25;5030148;28;20034;-69
2023/01/19 03:59:21;;;;;;;27.42;5.95;;;;;;;13.10;100.00;99915.00;5029891;28;20036;-69
2023/01/19 04:01:46;;;;;;;24.02;5.43;;;;;;;13.08;100.00;99922.75;5030242;28;20029;-69
2023/01/19 04:04:12;;;;;;;22.67;5.10;;;;;;;12.64;100.00;99845.09;5028900;28;20038;-69
2023/01/19 04:06:38;;;;;;;24.63;5.47;;;;;;;13.14;100.00;99923.72;5030313;28;20072;-69
2023/01/19 04:09:04;;;;;;;34.50;6.15;;;;;;;13.08;100.00;99916.69;5029844;28;20041;-69
2023/01/19 04:11:29;;;;;;;25.98;5.57;;;;;;;13.11;100.00;99927.97;5031248;28;20064;-69
2023/01/19 04:13:55;;;;;;;30.88;7.53;;;;;;;13.09;100.00;99937.44;5033666;28;20034;-69
2023/01/19 04:16:20;;;;;;;35.60;5.43;;;;;;;13.12;100.00;99926.25;5033410;28;20104;-69
2023/01/19 04:18:47;;;;;;;30.40;5.78;;;;;;;13.14;100.00;99936.66;5033828;28;20117;-68
2023/01/19 04:21:12;;;;;;;30.45;5.68;;;;;;;13.15;100.00;99939.28;5033340;28;20084;-70
2023/01/19 04:23:38;;;;;;;28.10;6.50;;;;;;;13.11;100.00;99940.94;5023727;28;20033;-69
2023/01/19 04:26:05;;;;;;;31.20;6.15;;;;;;;13.07;100.00;99944.31;5013879;28;20033;-69
2023/01/19 04:28:33;;;;;;;25.80;5.18;;;;;;;12.97;100.00;99928.56;5014273;28;20064;-68
2023/01/19 04:30:59;;;;;;;27.60;5.50;;;;;;;13.08;100.00;99947.78;5023312;28;20029;-68
2023/01/19 04:33:26;;;;;;;36.20;6.43;;;;;;;13.09;100.00;99955.56;5032852;28;20461;-69
2023/01/19 04:35:52;;;;;;;38.53;7.47;;;;;;;13.10;100.00;99954.72;5032656;28;20030;-72
2023/01/19 04:38:18;;;;;;;33.00;7.00;;;;;;;13.19;100.00;99963.53;5033291;28;20044;-69
2023/01/19 04:40:44;;;;;;;29.00;5.35;;;;;;;13.19;100.00;99953.16;5030222;28;20519;-69
2023/01/19 04:43:10;;;;;;;31.20;6.63;;;;;;;13.11;100.00;99956.50;5023772;28;20048;-69
2023/01/19 04:45:35;;;;;;;31.67;6.25;;;;;;;13.24;100.00;99954.97;5025119;28;20026;-69
2023/01/19 04:48:02;;;;;;;29.88;6.05;;;;;;;13.29;100.00;99960.25;5032974;28;20033;-69
2023/01/19 04:50:28;;;;;;;35.53;7.20;;;;;;;13.35;100.00;99960.34;5030188;28;20049;-69
2023/01/19 04:52:54;;;;;;;28.08;6.43;;;;;;;13.38;100.00;99959.56;5032834;28;20026;-68
2023/01/19 04:55:19;;;;;;;38.38;7.90;;;;;;;13.36;100.00;99959.53;5032959;28;20033;-69
2023/01/19 04:57:45;;;;;;;36.22;6.50;;;;;;;13.00;100.00;99890.63;5032749;28;20116;-69
2023/01/19 05:00:10;;;;;;;28.45;6.72;;;;;;;13.38;100.00;99954.38;5032734;28;20501;-69
2023/01/19 05:02:36;;;;;;;38.10;7.55;;;;;;;13.02;100.00;99908.78;5027757;28;20033;-69
2023/01/19 05:05:02;;;;;;;40.90;6.32;;;;;;;13.30;100.00;99940.41;5023031;28;20697;-69
2023/01/19 05:07:28;;;;;;;33.45;7.28;;;;;;;13.38;100.00;99960.47;5022803;28;20030;-69
2023/01/19 05:09:54;;;;;;;34.35;6.82;;;;;;;13.41;100.00;99965.69;5021615;28;20137;-74
2023/01/19 05:12:19;;;;;;;41.67;8.02;;;;;;;13.42;100.00;99956.16;5022783;28;20475;-69
2023/01/19 05:14:45;;;;;;;31.10;6.00;;;;;;;13.43;100.00;99963.09;5022256;28;20034;-68
2023/01/19 05:17:10;;;;;;;40.70;7.88;;;;;;;13.39;100.00;99959.59;5021561;28;20025;-68
2023/01/19 05:19:36;;;;;;;41.00;6.85;;;;;;;13.46;100.00;99962.28;5013589;28;20492;-69
2023/01/19 05:22:04;;;;;;;30.17;6.32;;;;;;;13.50;100.00;99971.88;5020226;28;20032;-70
2023/01/19 05:24:30;;;;;;;36.08;6.43;;;;;;;13.37;100.00;99948.34;5030903;28;20162;-68
2023/01/19 05:26:56;;;;;;;34.90;6.13;;;;;;;13.37;100.00;99945.75;5029467;28;20491;-69
2023/01/19 05:29:22;;;;;;;29.85;6.40;;;;;;;13.46;100.00;99962.28;5015019;28;20022;-68
2023/01/19 05:31:47;;;;;;;26.40;5.22;;;;;;;13.39;100.00;99954.41;5013069;28;20084;-68
2023/01/19 05:34:13;;;;;;;25.77;6.30;;;;;;;13.37;100.00;99957.78;5012868;28;20387;-68
2023/01/19 05:36:39;;;;;;;30.95;6.22;;;;;;;13.28;100.00;99958.50;5012523;28;20026;-70
2023/01/19 05:39:05;;;;;;;29.70;6.00;;;;;;;13.17;100.00;99939.28;5012476;28;20034;-69
2023/01/19 05:41:30;;;;;;;32.85;6.07;;;;;;;13.23;100.00;99960.13;5023709;28;20479;-69
2023/01/19 05:43:56;;;;;;;36.33;6.70;;;;;;;13.23;100.00;99954.97;5032318;28;20017;-69
2023/01/19 05:46:21;;;;;;;19.20;4.80;;;;;;;13.27;100.00;99957.63;5032296;28;20220;-69
2023/01/19 05:48:47;;;;;;;25.60;6.38;;;;;;;13.29;100.00;99947.28;5012936;28;20618;-69
2023/01/19 05:51:12;;;;;;;37.17;6.78;;;;;;;13.29;100.00;99947.28;5020030;28;20026;-70
2023/01/19 05:53:38;;;;;;;27.60;7.05;;;;;;;13.32;100.00;99947.34;5018437;28;20025;-69
2023/01/19 05:56:07;;;;;;;23.00;5.95;;;;;;;13.34;100.00;99947.38;5021569;28;20096;-69
2023/01/19 05:58:34;;;;;;;30.47;6.30;;;;;;;13.18;100.00;99925.50;5015664;28;20046;-71
2023/01/19 06:01:07;;;;;;;30.67;5.97;;;;;;;13.39;100.00;99961.31;5011151;28;20264;-69
2023/01/19 06:03:34;;;;;;;26.70;5.32;;;;;;;13.37;100.00;99963.91;5013471;28;20064;-72
2023/01/19 06:06:00;;;;;;;32.55;5.80;;;;;;;13.28;100.00;99950.72;5012203;28;20392;-69
2023/01/19 06:08:26;;;;;;;29.83;6.22;;;;;;;13.41;100.00;99963.09;5010715;28;20603;-72
2023/01/19 06:10:52;;;;;;;32.83;7.32;;;;;;;13.41;100.00;99967.41;5010374;28;20018;-69
2023/01/19 06:13:18;;;;;;;26.65;4.45;;;;;;;13.18;100.00;99917.72;5025490;28;20062;-68
2023/01/19 06:15:43;;;;;;;33.08;7.05;;;;;;;13.15;100.00;99921.13;5030714;28;20036;-70
2023/01/19 06:18:10;;;;;;;24.50;5.53;;;;;;;13.31;100.00;99962.88;5039821;28;20026;-70
2023/01/19 06:20:36;;;;;;;25.90;4.70;;;;;;;13.27;100.00;99944.69;5030740;28;20032;-70
2023/01/19 06:23:01;;;;;;;38.20;6.97;;;;;;;12.79;100.00;99866.06;5030876;28;20029;-70
2023/01/19 06:25:27;;;;;;;27.02;5.13;;;;;;;13.29;100.00;99955.06;5030948;28;20036;-74
2023/01/19 06:27:52;;;;;;;24.48;5.68;;;;;;;13.36;100.00;99956.94;5031373;28;20030;-70
2023/01/19 06:30:18;;;;;;;28.05;5.18;;;;;;;13.29;100.00;99944.69;5030816;28;20460;-68
2023/01/19 06:32:43;;;;;;;35.67;5.85;;;;;;;13.54;100.00;99971.94;5030549;28;20491;-70
2023/01/19 06:35:09;;;;;;;27.75;5.25;;;;;;;13.47;100.00;99943.28;5030915;28;20502;-72
2023/01/19 06:37:35;;;;;;;30.98;5.55;;;;;;;13.69;100.00;99980.84;5031020;28;20120;-70
2023/01/19 06:40:00;;;;;;;26.13;4.18;;;;;;;13.83;100.00;99978.47;5031460;28;20076;-70
2023/01/19 06:42:26;;;;;;;20.73;4.88;;;;;;;13.71;100.00;99963.59;5030921;28;20029;-69
2023/01/19 06:44:51;;;;;;;27.33;5.88;;;;;;;13.67;100.00;99960.06;5029686;28;20041;-70
2023/01/19 06:47:17;;;;;;;29.08;5.60;;;;;;;13.80;100.00;99973.25;5051012;28;20104;-69
2023/01/19 06:49:42;;;;;;;25.17;5.90;;;;;;;13.52;100.00;99933.88;5050671;28;20040;-69
2023/01/19 06:52:10;;;;;;;20.98;6.43;;;;;;;14.01;100.00;100003.84;5048500;28;20024;-69
2023/01/19 06:54:36;;;;;;;30.58;5.65;;;;;;;14.07;100.00;100003.94;5014206;28;20030;-70
2023/01/19 06:57:02;;;;;;;31.35;5.90;;;;;;;13.99;100.00;99975.25;5022748;28;20052;-73
2023/01/19 06:59:28;;;;;;;18.58;5.22;;;;;;;14.29;100.00;100018.06;5025882;28;20025;-69
2023/01/19 07:01:55;;;;;;;23.00;4.65;;;;;;;14.40;100.00;100007.84;5050794;28;20075;-69
2023/01/19 07:04:20;;;;;;;28.25;5.25;;;;;;;14.44;100.00;100011.38;5050368;28;20445;-70
2023/01/19 07:06:46;;;;;;;24.23;5.93;;;;;;;14.35;100.00;99983.56;5050823;28;20029;-70
2023/01/19 07:09:12;;;;;;;29.35;6.47;;;;;;;14.55;100.00;100027.97;5050376;28;20501;-69
2023/01/19 07:11:38;;;;;;;26.23;5.25;;;;;;;14.27;100.00;99960.09;5050370;28;20053;-70
2023/01/19 07:14:03;;;;;;;31.65;5.57;;;;;;;14.69;100.00;100010.00;5050516;28;20113;-69
2023/01/19 07:16:29;;;;;;;26.42;5.18;;;;;;;14.74;100.00;100018.72;5050573;28;20111;-70
2023/01/19 07:18:54;;;;;;;30.00;4.45;;;;;;;14.61;100.00;99985.63;5050332;28;20067;-68
2023/01/19 07:21:20;;;;;;;18.63;5.30;;;;;;;14.74;100.00;99997.94;5050265;28;20463;-69
2023/01/19 07:23:52;;;;;;;30.10;4.90;;;;;;;14.88;100.00;100016.31;5049070;28;20021;-69
2023/01/19 07:26:20;;;;;;;20.85;5.30;;;;;;;14.98;100.00;100020.75;5050474;28;20087;-69
2023/01/19 07:28:49;;;;;;;35.05;6.93;;;;;;;14.95;100.00;100009.44;5050470;28;20036;-69
2023/01/19 07:31:15;;;;;;;21.63;3.97;;;;;;;15.08;100.00;100002.66;5050016;28;20036;-69
2023/01/19 07:33:41;;;;;;;27.35;4.47;;;;;;;15.15;100.00;100009.66;5050554;28;20120;-69
2023/01/19 07:36:07;;;;;;;37.58;5.35;;;;;;;15.20;100.00;100015.78;5050026;28;20035;-70
2023/01/19 07:38:33;;;;;;;24.88;5.05;;;;;;;15.24;100.00;100011.50;5050304;28;20061;-70
2023/01/19 07:41:03;;;;;;;16.25;4.25;;;;;;;15.30;100.00;100012.44;5050127;28;20487;-69
2023/01/19 07:43:28;;;;;;;17.13;4.55;;;;;;;15.41;100.00;100032.47;5050310;28;20103;-69
2023/01/19 07:46:02;;;;;;;18.20;4.15;;;;;;;15.25;100.00;99990.69;5050470;28;20017;-69
2023/01/19 07:48:28;;;;;;;22.77;3.70;;;;;;;15.44;100.00;100017.78;5052670;28;20078;-69
2023/01/19 07:51:07;;;;;;;24.95;4.63;;;;;;;15.59;100.00;100042.19;5054003;28;20581;-69
2023/01/19 07:53:33;;;;;;;21.40;4.50;;;;;;;15.44;100.00;99990.88;5054226;28;20112;-69
2023/01/19 07:55:59;;;;;;;22.25;4.80;;;;;;;15.73;100.00;100035.38;5054097;28;20119;-70
2023/01/19 07:58:25;;;;;;;25.13;4.57;;;;;;;15.77;100.00;100042.34;5053214;28;20111;-69
2023/01/19 08:00:50;;;;;;;19.40;5.05;;;;;;;15.82;100.00;100034.63;5051470;28;20037;-69
2023/01/19 08:03:16;;;;;;;28.10;5.90;;;;;;;15.87;100.00;100030.31;5064414;28;20482;-70
2023/01/19 08:05:42;;;;;;;30.85;5.53;;;;;;;15.63;100.00;99981.53;5071533;28;20024;-69
2023/01/19 08:08:07;;;;;;;28.85;5.50;;;;;;;15.95;100.00;100014.75;5071263;28;20130;-69
2023/01/19 08:10:33;;;;;;;16.10;4.22;;;;;;;15.94;100.00;100039.06;5071318;28;20037;-69
2023/01/19 08:12:59;;;;;;;22.90;4.80;;;;;;;15.98;100.00;100038.22;5070911;28;20052;-68
2023/01/19 08:15:25;;;;;;;31.13;5.05;;;;;;;16.04;100.00;100046.09;5071108;28;20541;-69
2023/01/19 08:18:01;;;;;;;28.23;5.03;;;;;;;16.06;100.00;100038.28;5071081;28;20080;-69
2023/01/19 08:20:28;;;;;;;22.20;4.32;;;;;;;16.09;100.00;100041.78;5071055;28;20086;-69
2023/01/19 08:23:01;;;;;;;22.50;4.72;;;;;;;16.15;100.00;100041.84;5071101;28;20526;-69
2023/01/19 08:25:35;;;;;;;27.50;4.60;;;;;;;16.14;100.00;100039.22;5070922;28;20055;-69
2023/01/19 08:28:01;;;;;;;25.50;4.57;;;;;;;16.28;100.00;100050.59;5070972;28;20072;-68
2023/01/19 08:30:27;;;;;;;20.50;4.60;;;;;;;16.31;100.00;100078.38;5052844;28;20065;-69
2023/01/19 08:32:56;;;;;;;18.80;3.97;;;;;;;16.30;100.00;100064.50;5053591;28;20064;-68
2023/01/19 08:35:22;;;;;;;16.80;4.32;;;;;;;16.35;100.00;100059.34;5053485;28;20061;-69
2023/01/19 08:37:48;;;;;;;21.23;4.60;;;;;;;16.33;100.00;100069.72;5050941;28;20133;-69
2023/01/19 08:40:14;;;;;;;16.08;4.35;;;;;;;16.07;99.97;100012.25;5053121;28;20029;-69
2023/01/19 08:42:39;;;;;;;19.38;4.63;;;;;;;16.44;100.00;100077.63;5053070;28;20033;-68
2023/01/19 08:45:05;;;;;;;25.45;4.78;;;;;;;16.16;100.00;100020.13;5053300;28;20108;-69
2023/01/19 08:47:31;;;;;;;20.27;3.83;;;;;;;16.21;100.00;99998.47;5053181;28;20033;-69
2023/01/19 08:49:56;;;;;;;23.08;5.45;;;;;;;16.66;99.18;100078.63;5053123;28;20040;-69
2023/01/19 08:52:23;;;;;;;32.95;5.50;;;;;;;16.66;99.15;100070.81;5053202;28;20037;-69
2023/01/19 08:54:48;;;;;;;21.50;4.47;;;;;;;16.80;98.40;100086.53;5052972;28;20469;-69
2023/01/19 08:57:15;;;;;;;13.90;4.00;;;;;;;16.76;97.38;100089.97;5052618;28;20025;-69
2023/01/19 08:59:40;;;;;;;19.13;3.72;;;;;;;16.38;98.32;100008.97;5066577;28;20029;-69
2023/01/19 09:02:05;;;;;;;20.70;4.40;;;;;;;16.94;97.25;100078.78;5052976;28;20025;-69
2023/01/19 09:04:33;;;;;;;21.58;4.22;;;;;;;16.89;97.84;100059.63;5052837;28;20475;-69
2023/01/19 09:06:58;;;;;;;24.80;4.55;;;;;;;16.56;97.35;99996.06;5052758;28;20040;-69
2023/01/19 09:09:24;;;;;;;27.35;4.57;;;;;;;17.03;96.82;100067.53;5052645;28;20025;-69
2023/01/19 09:11:49;;;;;;;17.20;3.55;;;;;;;16.99;96.84;100076.22;5052564;28;20052;-69
2023/01/19 09:14:15;;;;;;;24.70;4.03;;;;;;;17.03;96.76;100064.06;5051234;28;20036;-69
2023/01/19 09:16:40;;;;;;;17.50;4.32;;;;;;;17.02;96.95;100046.66;5049508;28;20074;-69
2023/01/19 09:19:07;;;;;;;24.90;4.07;;;;;;;17.02;96.93;100062.31;5027466;28;20040;-69
2023/01/19 09:21:33;;;;;;;17.38;3.42;;;;;;;16.90;96.53;100056.16;5032437;28;20025;-69
2023/01/19 09:23:58;;;;;;;20.90;4.43;;;;;;;16.96;96.32;100048.38;5031166;28;20550;-69
2023/01/19 09:26:23;;;;;;;18.42;4.82;;;;;;;17.03;95.90;100051.88;5031028;28;20041;-70
2023/01/19 09:28:49;;;;;;;15.55;3.55;;;;;;;17.11;96.08;100052.78;5032349;28;20040;-69
2023/01/19 09:31:15;;;;;;;20.52;3.83;;;;;;;17.17;96.67;100065.00;5032481;28;20026;-70
2023/01/19 09:33:40;;;;;;;13.38;3.35;;;;;;;17.25;95.46;100046.75;5032219;28;20033;-69
2023/01/19 09:36:06;;;;;;;18.05;4.22;;;;;;;17.19;96.41;100016.28;5032462;28;20040;-69
2023/01/19 09:38:31;;;;;;;17.02;3.90;;;;;;;17.35;95.44;100035.47;5032129;28;20029;-69
2023/01/19 09:40:58;;;;;;;25.23;5.32;;;;;;;17.36;94.73;100038.94;5032267;28;20032;-69
2023/01/19 09:43:41;;;;;;;16.77;4.50;;;;;;;17.39;94.51;100034.59;5031962;28;20112;-69
2023/01/19 09:46:18;;;;;;;17.25;3.72;;;;;;;17.38;95.14;100030.22;5032270;28;20033;-69
2023/01/19 09:48:55;;;;;;;15.07;3.72;;;;;;;17.10;93.48;99959.75;5032227;28;20537;-71
2023/01/19 09:51:23;;;;;;;17.52;4.82;;;;;;;17.58;94.23;100017.25;5032199;28;20112;-69
2023/01/19 09:54:35;;;;;;;24.30;4.95;;;;;;;17.67;94.23;100024.22;5031571;28;20021;-69
2023/01/19 09:57:01;;;;;;;16.02;4.53;;;;;;;17.76;92.43;100020.72;5009754;28;20176;-69
2023/01/19 09:59:31;;;;;;;14.18;3.95;;;;;;;17.26;92.52;99928.50;5009626;28;20124;-69
2023/01/19 10:02:11;;;;;;;18.58;3.90;;;;;;;17.81;90.70;100023.31;5009579;28;20054;-69
2023/01/19 10:04:58;;;;;;;20.63;4.18;;;;;;;17.76;90.42;100013.75;5009598;28;20122;-70
2023/01/19 10:07:27;;;;;;;21.17;4.30;;;;;;;17.83;91.30;100009.44;5009491;28;20036;-69
2023/01/19 10:10:09;;;;;;;18.83;4.47;;;;;;;17.83;90.30;100019.88;5009036;28;20065;-69
2023/01/19 10:12:37;;;;;;;23.67;4.85;;;;;;;17.98;89.72;100015.53;5009049;28;20435;-70
2023/01/19 10:15:08;;;;;;;18.90;3.63;;;;;;;17.87;90.05;100013.75;5009232;28;20057;-69
2023/01/19 10:18:10;;;;;;;16.48;3.00;;;;;;;17.86;89.57;100014.63;5002895;28;20498;-69
2023/01/19 10:20:41;;;;;;;20.23;3.60;;;;;;;17.85;92.23;99998.97;4938857;29;20044;-69
2023/01/19 10:23:23;;;;;;;17.98;3.67;;;;;;;17.83;91.23;100001.59;4939826;29;20035;-69
2023/01/19 10:25:50;;;;;;;18.17;3.83;;;;;;;17.69;91.80;99974.59;4950602;29;20035;-68
2023/01/19 10:28:21;;;;;;;11.98;3.15;;;;;;;17.73;90.29;99998.09;4961398;28;20035;-68
2023/01/19 10:30:47;;;;;;;17.25;5.13;;;;;;;17.76;91.47;99984.19;4970085;28;20121;-68
2023/01/19 10:33:14;;;;;;;18.75;3.78;;;;;;;17.79;91.78;100005.06;4969335;28;20045;-69
2023/01/19 10:35:39;;;;;;;17.55;3.75;;;;;;;17.89;90.69;99998.09;4969846;28;20485;-70
2023/01/19 10:38:05;;;;;;;17.00;3.63;;;;;;;17.82;89.86;99968.50;4969910;28;20038;-69
2023/01/19 10:40:36;;;;;;;24.63;4.20;;;;;;;17.79;89.90;99982.44;4969932;28;20035;-69
2023/01/19 10:43:33;;;;;;;20.38;4.53;;;;;;;17.88;89.70;99991.13;4966979;28;20023;-69
2023/01/19 10:46:06;;;;;;;22.42;4.13;;;;;;;17.92;90.77;99974.59;4965112;28;20042;-69
2023/01/19 10:48:40;;;;;;;16.50;3.67;;;;;;;17.93;90.61;99971.97;4963069;28;20437;-70
2023/01/19 10:51:08;;;;;;;19.73;3.95;;;;;;;17.95;90.81;99978.06;4965419;28;20125;-70
2023/01/19 10:53:34;;;;;;;13.32;3.38;;;;;;;17.95;89.26;99977.22;4963388;28;20065;-69
2023/01/19 10:56:21;;;;;;;18.90;3.83;;;;;;;17.95;88.76;99988.53;4989511;28;20680;-69
2023/01/19 10:58:46;;;;;;;13.57;3.55;;;;;;;17.61;89.10;99925.00;5014675;28;20112;-69
2023/01/19 11:01:17;;;;;;;15.65;3.42;;;;;;;17.55;89.00;99888.47;5012144;28;20117;-68
2023/01/19 11:03:43;;;;;;;22.80;5.10;;;;;;;18.00;89.04;99977.22;5009852;28;20112;-69
2023/01/19 11:06:22;;;;;;;18.15;3.97;;;;;;;18.07;89.52;99971.97;5010140;28;20479;-71
2023/01/19 11:08:50;;;;;;;18.00;3.78;;;;;;;18.05;88.10;99936.28;5009822;28;20022;-69
2023/01/19 11:11:18;;;;;;;15.45;3.80;;;;;;;17.69;88.58;99834.50;5010022;28;20443;-69
2023/01/19 11:13:44;;;;;;;16.17;3.60;;;;;;;17.60;87.84;99871.94;5009715;28;20101;-69
2023/01/19 11:16:28;;;;;;;13.98;4.20;;;;;;;18.12;88.16;99969.38;5012714;28;20022;-69
2023/01/19 11:18:56;;;;;;;18.35;4.05;;;;;;;18.06;88.11;99964.16;5025318;28;20388;-68
2023/01/19 11:21:24;;;;;;;17.17;4.47;;;;;;;17.57;88.13;99879.78;5008708;28;20033;-68
2023/01/19 11:23:52;;;;;;;16.02;2.85;;;;;;;17.64;87.91;99893.69;5013337;28;20030;-70
2023/01/19 11:26:24;;;;;;;22.23;4.10;;;;;;;17.83;88.38;99902.38;5018506;28;20091;-71
2023/01/19 11:28:53;;;;;;;16.80;3.97;;;;;;;18.23;87.79;99957.16;5009775;28;20083;-69
2023/01/19 11:31:28;;;;;;;16.15;3.80;;;;;;;18.17;86.21;99972.84;5012393;28;20034;-68
2023/01/19 11:34:21;;;;;;;14.77;3.33;;;;;;;18.15;87.16;99964.13;5009565;28;20033;-68